createdAt,value
2019-02-20T00:01:52.920Z,52.70
2019-02-20T00:04:21.398Z,52.80
2019-02-20T00:06:49.244Z,52.40
2019-02-20T00:09:17.464Z,52.60
2019-02-20T00:11:45.315Z,52.60
2019-02-20T00:14:13.157Z,52.60
2019-02-20T00:16:40.991Z,52.40
2019-02-20T00:19:09.115Z,52.80
2019-02-20T00:21:36.953Z,52.50
2019-02-20T00:24:04.790Z,52.80
2019-02-20T00:26:32.915Z,52.40
2019-02-20T00:29:00.843Z,52.70
2019-02-20T00:31:28.684Z,52.80
2019-02-20T00:33:56.531Z,52.50
2019-02-20T00:36:24.369Z,52.70
2019-02-20T00:38:52.287Z,52.60
2019-02-20T00:41:20.177Z,52.90
2019-02-20T00:44:00.982Z,52.40
2019-02-20T00:46:37.060Z,53.00
2019-02-20T00:49:26.779Z,52.70
2019-02-20T00:52:01.368Z,52.50
2019-02-20T00:54:29.273Z,52.50
2019-02-20T00:56:57.116Z,52.50
2019-02-20T00:59:24.964Z,52.50
2019-02-20T01:01:52.882Z,52.80
2019-02-20T01:04:20.747Z,52.70
2019-02-20T01:06:48.586Z,52.50
2019-02-20T01:09:16.431Z,52.60
2019-02-20T01:11:44.271Z,52.60
2019-02-20T01:14:12.443Z,52.50
2019-02-20T01:16:40.627Z,52.70
2019-02-20T01:19:08.520Z,52.60
2019-02-20T01:21:36.363Z,52.50
2019-02-20T01:24:04.328Z,52.50
2019-02-20T01:26:32.414Z,52.60
2019-02-20T01:29:00.280Z,52.40
2019-02-20T01:31:28.130Z,52.40
2019-02-20T01:33:55.991Z,52.50
2019-02-20T01:36:23.845Z,52.40
2019-02-20T01:38:51.713Z,52.60
2019-02-20T01:41:19.579Z,52.50
2019-02-20T01:43:47.452Z,52.50
2019-02-20T01:46:15.291Z,52.60
2019-02-20T01:48:43.496Z,52.50
2019-02-20T01:51:11.673Z,52.70
2019-02-20T01:53:39.560Z,52.50
2019-02-20T01:56:07.431Z,52.50
2019-02-20T01:58:35.305Z,52.40
2019-02-20T02:01:03.146Z,52.70
2019-02-20T02:03:31.011Z,52.70
2019-02-20T02:05:59.195Z,52.60
2019-02-20T02:08:27.073Z,52.50
2019-02-20T02:10:54.910Z,52.60
2019-02-20T02:13:22.787Z,52.30
2019-02-20T04:08:44.358Z,51.00
2019-02-20T04:11:12.899Z,51.10
2019-02-20T04:13:40.787Z,51.30
2019-02-20T04:16:08.959Z,50.90
2019-02-20T04:18:36.821Z,51.30
2019-02-20T04:21:04.999Z,51.00
2019-02-20T04:23:32.859Z,50.90
2019-02-20T04:26:01.023Z,51.20
2019-02-20T04:28:28.878Z,51.10
2019-02-20T04:30:56.723Z,51.30
2019-02-20T04:33:24.577Z,51.50
2019-02-20T04:35:52.437Z,51.00
2019-02-20T04:38:20.399Z,51.00
2019-02-20T04:40:48.729Z,50.80
2019-02-20T04:43:16.722Z,51.00
2019-02-20T04:45:44.573Z,50.90
2019-02-20T04:48:12.468Z,51.00
2019-02-20T04:50:40.321Z,51.10
2019-02-20T04:53:08.204Z,51.10
2019-02-20T04:55:36.140Z,50.80
2019-02-20T04:58:10.437Z,51.10
2019-02-20T05:00:38.280Z,50.80
2019-02-20T05:03:06.220Z,50.40
2019-02-20T05:05:34.068Z,51.10
2019-02-20T05:08:01.918Z,50.70
2019-02-20T05:10:29.863Z,50.40
2019-02-20T05:12:57.766Z,50.50
2019-02-20T05:15:25.711Z,50.70
2019-02-20T05:17:53.555Z,50.50
2019-02-20T05:20:21.412Z,50.70
2019-02-20T05:22:49.264Z,50.90
2019-02-20T05:25:17.120Z,50.90
2019-02-20T05:27:44.975Z,50.50
2019-02-20T05:30:13.640Z,50.30
2019-02-20T05:32:41.900Z,50.30
2019-02-20T05:35:09.853Z,51.40
2019-02-20T05:37:39.640Z,50.60
2019-02-20T05:40:07.656Z,50.50
2019-02-20T05:42:35.494Z,50.70
2019-02-20T05:45:03.442Z,50.90
2019-02-20T05:47:31.386Z,50.80
2019-02-20T05:49:59.228Z,51.10
2019-02-20T05:52:27.390Z,51.40
2019-02-20T05:54:55.244Z,51.50
2019-02-20T05:57:23.449Z,52.00
2019-02-20T05:59:51.688Z,52.50
2019-02-20T06:02:20.187Z,52.40
2019-02-20T06:04:48.452Z,52.50
2019-02-20T06:07:16.308Z,52.50
2019-02-20T06:09:44.267Z,52.80
2019-02-20T06:12:12.473Z,52.50
2019-02-20T06:14:40.327Z,52.30
2019-02-20T06:17:08.180Z,52.10
2019-02-20T06:19:36.471Z,52.00
2019-02-20T06:22:04.323Z,52.10
2019-02-20T06:24:32.224Z,52.00
2019-02-20T06:27:00.159Z,52.10
2019-02-20T06:29:28.104Z,51.80
2019-02-20T06:31:55.952Z,51.20
2019-02-20T06:34:23.899Z,51.00
2019-02-20T06:36:51.804Z,50.70
2019-02-20T06:39:19.756Z,50.50
2019-02-20T06:41:47.680Z,50.10
2019-02-20T06:44:15.559Z,49.10
2019-02-20T06:46:43.402Z,49.00
2019-02-20T06:49:11.380Z,49.40
2019-02-20T06:51:39.224Z,49.60
2019-02-20T06:54:07.071Z,49.60
2019-02-20T06:56:34.918Z,49.80
2019-02-20T06:59:02.774Z,48.70
2019-02-20T07:01:30.628Z,49.20
2019-02-20T07:03:58.484Z,49.40
2019-02-20T07:06:35.235Z,48.60
2019-02-20T07:09:21.344Z,50.80
2019-02-20T07:11:56.752Z,51.30
2019-02-20T07:14:43.904Z,49.50
2019-02-20T07:17:18.388Z,48.80
2019-02-20T07:20:08.460Z,48.20
2019-02-20T07:23:07.870Z,47.70
2019-02-20T07:25:40.095Z,48.00
2019-02-20T07:28:39.341Z,47.50
2019-02-20T07:31:07.259Z,47.60
2019-02-20T07:33:35.229Z,47.70
2019-02-20T07:38:39.184Z,47.70
2019-02-20T07:41:07.319Z,48.80
2019-02-20T07:43:35.471Z,47.80
2019-02-20T07:46:03.400Z,47.70
2019-02-20T07:48:31.268Z,47.90
2019-02-20T07:50:59.132Z,48.80
2019-02-20T07:53:27.264Z,47.30
2019-02-20T07:55:55.187Z,47.70
2019-02-20T07:58:23.035Z,47.30
2019-02-20T08:00:50.905Z,47.50
2019-02-20T08:03:18.825Z,46.90
2019-02-20T08:05:47.063Z,47.30
2019-02-20T08:08:14.902Z,47.10
2019-02-20T08:10:42.869Z,47.10
2019-02-20T08:13:10.714Z,46.70
2019-02-20T08:15:38.596Z,46.50
2019-02-20T08:18:06.447Z,46.50
2019-02-20T08:20:34.613Z,46.40
2019-02-20T08:23:02.459Z,46.60
2019-02-20T08:25:30.327Z,46.10
2019-02-20T08:27:58.186Z,46.10
2019-02-20T08:30:26.133Z,46.50
2019-02-20T08:32:53.967Z,46.50
2019-02-20T08:35:21.831Z,47.00
2019-02-20T08:37:49.674Z,47.70
2019-02-20T08:40:17.935Z,46.60
2019-02-20T08:42:45.782Z,46.60
2019-02-20T08:45:14.093Z,45.90
2019-02-20T08:47:41.936Z,45.80
2019-02-20T08:50:10.203Z,45.90
2019-02-20T08:52:38.071Z,45.70
2019-02-20T08:55:05.999Z,45.70
2019-02-20T08:57:33.846Z,45.90
2019-02-20T09:00:01.692Z,45.80
2019-02-20T09:02:29.880Z,45.70
2019-02-20T09:04:58.026Z,45.70
2019-02-20T09:07:25.962Z,45.60
2019-02-20T09:09:54.167Z,45.40
2019-02-20T09:12:22.348Z,45.50
2019-02-20T09:14:50.201Z,47.00
2019-02-20T09:17:26.389Z,46.20
2019-02-20T09:19:54.771Z,45.40
2019-02-20T09:22:22.923Z,45.20
2019-02-20T09:24:50.783Z,45.40
2019-02-20T09:27:18.958Z,45.50
2019-02-20T09:29:46.827Z,45.60
2019-02-20T09:32:14.703Z,45.70
2019-02-20T09:34:42.587Z,45.80
2019-02-20T09:37:10.437Z,45.70
2019-02-20T09:39:38.474Z,45.80
2019-02-20T09:42:07.642Z,45.80
2019-02-20T09:44:37.048Z,45.80
2019-02-20T09:47:04.891Z,45.90
2019-02-20T09:49:32.754Z,45.70
2019-02-20T09:52:00.626Z,45.90
2019-02-20T09:54:28.786Z,45.80
2019-02-20T09:56:56.642Z,45.70
2019-02-20T09:59:24.499Z,45.70
2019-02-20T10:01:52.667Z,45.90
2019-02-20T10:04:20.519Z,46.10
2019-02-20T10:06:48.586Z,45.90
2019-02-20T10:09:16.420Z,45.90
2019-02-20T10:11:44.283Z,46.20
2019-02-20T10:14:12.119Z,45.90
2019-02-20T10:16:39.991Z,45.90
2019-02-20T10:19:08.145Z,45.80
2019-02-20T10:21:36.015Z,46.10
2019-02-20T10:24:03.850Z,45.90
2019-02-20T10:26:33.390Z,46.00
2019-02-20T10:29:01.513Z,46.20
2019-02-20T10:31:29.374Z,46.30
2019-02-20T10:33:57.487Z,46.10
2019-02-20T10:36:25.664Z,46.10
2019-02-20T10:38:53.512Z,46.10
2019-02-20T10:41:21.384Z,46.20
2019-02-20T10:43:49.567Z,46.50
2019-02-20T10:46:17.440Z,46.60
2019-02-20T10:48:45.606Z,46.40
2019-02-20T10:51:13.498Z,46.30
2019-02-20T10:53:41.756Z,46.30
2019-02-20T10:56:09.883Z,47.80
2019-02-20T10:58:37.859Z,48.20
2019-02-20T11:01:06.007Z,46.20
2019-02-20T11:03:34.139Z,46.20
2019-02-20T11:06:02.744Z,45.30
2019-02-20T11:08:30.907Z,45.70
2019-02-20T11:10:58.779Z,46.10
2019-02-20T11:13:26.632Z,45.20
2019-02-20T11:15:54.499Z,45.90
2019-02-20T11:18:22.975Z,45.90
2019-02-20T11:20:50.843Z,46.20
2019-02-20T11:23:18.688Z,45.80
2019-02-20T11:25:46.555Z,45.80
2019-02-20T11:28:14.480Z,46.60
2019-02-20T11:30:42.340Z,45.90
2019-02-20T11:33:10.524Z,45.90
2019-02-20T11:35:38.673Z,46.30
2019-02-20T11:38:06.510Z,46.30
2019-02-20T11:40:34.688Z,46.50
2019-02-20T11:43:02.864Z,46.60
2019-02-20T11:45:30.906Z,46.60
2019-02-20T11:47:58.887Z,46.80
2019-02-20T11:50:27.504Z,46.80
2019-02-20T11:52:55.342Z,46.70
2019-02-20T11:55:23.183Z,47.40
2019-02-20T11:57:51.027Z,47.60
2019-02-20T12:00:18.947Z,48.00
2019-02-20T12:02:46.786Z,47.30
2019-02-20T12:05:14.887Z,47.30
2019-02-20T12:07:42.760Z,47.20
2019-02-20T12:10:12.659Z,46.20
2019-02-20T12:12:40.933Z,45.10
2019-02-20T12:15:09.422Z,44.50
2019-02-20T12:17:37.429Z,44.30
2019-02-20T12:20:05.619Z,44.80
2019-02-20T12:22:33.560Z,45.10
2019-02-20T12:25:01.717Z,44.90
2019-02-20T12:27:29.737Z,44.50
2019-02-20T12:29:58.030Z,44.20
2019-02-20T12:32:25.878Z,44.80
2019-02-20T12:34:53.796Z,43.80
2019-02-20T12:37:21.642Z,44.30
2019-02-20T12:39:49.824Z,43.70
2019-02-20T12:42:17.999Z,43.90
2019-02-20T12:44:45.842Z,43.70
2019-02-20T12:47:13.688Z,44.40
2019-02-20T12:49:41.804Z,43.80
2019-02-20T12:52:10.060Z,43.70
2019-02-20T12:54:38.264Z,44.00
2019-02-20T12:57:06.123Z,43.80
2019-02-20T12:59:33.976Z,44.10
2019-02-20T13:02:02.155Z,43.70
2019-02-20T13:04:30.463Z,44.50
2019-02-20T13:06:59.439Z,43.20
2019-02-20T13:09:28.335Z,43.10
2019-02-20T13:11:56.178Z,43.20
2019-02-20T13:14:24.019Z,43.60
2019-02-20T13:16:52.220Z,43.50
2019-02-20T13:19:20.067Z,42.80
2019-02-20T13:21:47.911Z,42.80
2019-02-20T13:24:15.753Z,42.80
2019-02-20T13:26:43.600Z,42.60
2019-02-20T13:29:11.755Z,43.10
2019-02-20T13:31:39.601Z,43.00
2019-02-20T13:34:07.439Z,43.20
2019-02-20T13:36:35.567Z,43.80
2019-02-20T13:39:04.571Z,42.80
2019-02-20T13:41:32.416Z,44.00
2019-02-20T13:44:00.255Z,42.80
2019-02-20T13:46:28.099Z,43.20
2019-02-20T13:48:56.224Z,43.20
2019-02-20T13:51:24.506Z,43.80
2019-02-20T13:53:52.744Z,43.30
2019-02-20T13:56:20.750Z,43.40
2019-02-20T13:58:49.027Z,43.70
2019-02-20T14:01:16.875Z,45.30
2019-02-20T14:03:44.727Z,47.30
2019-02-20T14:06:12.575Z,47.20
2019-02-20T14:08:40.499Z,47.20
2019-02-20T14:11:08.853Z,46.90
2019-02-20T14:13:36.839Z,46.90
2019-02-20T14:16:04.686Z,46.80
2019-02-20T14:18:32.604Z,46.90
2019-02-20T14:21:00.528Z,47.10
2019-02-20T14:23:29.725Z,47.10
2019-02-20T14:25:57.698Z,47.30
2019-02-20T14:28:26.291Z,47.40
2019-02-20T14:30:54.165Z,47.50
2019-02-20T14:33:22.111Z,47.40
2019-02-20T14:35:50.318Z,47.50
2019-02-20T14:38:18.240Z,47.50
2019-02-20T14:40:46.164Z,47.70
2019-02-20T14:43:14.082Z,47.70
2019-02-20T14:45:42.577Z,47.80
2019-02-20T14:48:10.500Z,47.90
2019-02-20T14:50:38.356Z,48.00
2019-02-20T14:53:06.586Z,48.10
2019-02-20T14:55:34.495Z,48.10
2019-02-20T14:58:02.865Z,48.40
2019-02-20T15:00:30.746Z,48.30
2019-02-20T15:02:58.965Z,48.30
2019-02-20T15:05:27.085Z,48.50
2019-02-20T15:07:54.933Z,48.80
2019-02-20T15:10:22.776Z,48.50
2019-02-20T15:12:50.695Z,48.60
2019-02-20T15:15:19.190Z,48.80
2019-02-20T15:17:47.247Z,48.60
2019-02-20T15:20:15.388Z,48.80
2019-02-20T15:22:43.241Z,48.80
2019-02-20T15:25:11.179Z,48.80
2019-02-20T15:27:39.099Z,49.00
2019-02-20T15:30:07.807Z,48.90
2019-02-20T15:32:35.656Z,49.10
2019-02-20T15:35:03.584Z,49.00
2019-02-20T15:37:32.163Z,49.10
2019-02-20T15:40:00.007Z,49.20
2019-02-20T15:42:27.938Z,49.10
2019-02-20T15:44:56.482Z,49.10
2019-02-20T15:47:24.326Z,49.20
2019-02-20T15:49:52.256Z,49.10
2019-02-20T15:52:20.541Z,49.30
2019-02-20T15:54:49.109Z,49.30
2019-02-20T15:57:17.019Z,49.30
2019-02-20T15:59:45.324Z,49.40
2019-02-20T16:02:13.490Z,49.30
2019-02-20T16:04:41.406Z,49.40
2019-02-20T16:07:09.635Z,49.50
2019-02-20T16:09:37.545Z,49.40
2019-02-20T16:12:05.899Z,49.80
2019-02-20T16:14:33.747Z,49.40
2019-02-20T16:17:01.713Z,50.10
2019-02-20T16:19:29.885Z,49.50
2019-02-20T16:21:57.840Z,49.70
2019-02-20T16:24:25.738Z,49.50
2019-02-20T16:26:53.700Z,49.60
2019-02-20T16:29:21.627Z,49.50
2019-02-20T16:31:50.140Z,49.50
2019-02-20T16:34:17.984Z,49.60
2019-02-20T16:36:46.171Z,49.60
2019-02-20T16:39:14.020Z,49.70
2019-02-20T16:41:43.576Z,49.70
2019-02-20T16:44:11.556Z,49.80
2019-02-20T16:46:39.789Z,49.80
2019-02-20T16:49:07.638Z,49.80
2019-02-20T16:51:35.469Z,49.80
2019-02-20T16:54:04.939Z,49.90
2019-02-20T16:56:33.304Z,49.80
2019-02-20T16:59:02.556Z,49.80
2019-02-20T17:01:30.523Z,49.90
2019-02-20T17:03:59.051Z,49.80
2019-02-20T17:06:26.891Z,49.90
2019-02-20T17:08:54.735Z,49.90
2019-02-20T17:11:22.589Z,50.00
2019-02-20T17:13:50.507Z,50.00
2019-02-20T17:16:18.995Z,50.10
2019-02-20T17:18:46.868Z,50.10
2019-02-20T17:21:15.086Z,50.00
2019-02-20T17:23:43.038Z,50.10
2019-02-20T17:26:11.300Z,50.10
2019-02-20T17:28:39.197Z,50.10
2019-02-20T17:31:07.131Z,50.10
2019-02-20T17:33:35.102Z,50.10
2019-02-20T17:36:03.011Z,50.10
2019-02-20T17:38:31.260Z,50.20
2019-02-20T17:40:59.176Z,50.10
2019-02-20T17:43:27.201Z,50.20
2019-02-20T17:45:55.065Z,50.20
2019-02-20T17:48:23.034Z,50.20
2019-02-20T17:50:51.170Z,49.60
2019-02-20T17:53:19.449Z,48.70
2019-02-20T17:55:48.034Z,50.00
2019-02-20T17:58:16.091Z,48.70
2019-02-20T18:00:44.075Z,49.00
2019-02-20T18:03:12.140Z,48.80
2019-02-20T18:05:40.025Z,48.80
2019-02-20T18:08:08.423Z,48.30
2019-02-20T18:10:36.770Z,48.60
2019-02-20T18:13:04.935Z,48.60
2019-02-20T18:15:32.800Z,48.60
2019-02-20T18:18:01.717Z,48.50
2019-02-20T18:20:29.647Z,48.50
2019-02-20T18:22:57.495Z,48.50
2019-02-20T18:25:25.402Z,48.70
2019-02-20T18:27:53.572Z,48.40
2019-02-20T18:30:21.422Z,48.60
2019-02-20T18:32:49.612Z,48.40
2019-02-20T18:35:17.476Z,48.50
2019-02-20T18:37:45.425Z,50.50
2019-02-20T18:40:13.357Z,49.50
2019-02-20T18:42:41.207Z,49.10
2019-02-20T18:45:09.511Z,48.80
2019-02-20T18:47:37.639Z,48.50
2019-02-20T18:50:06.211Z,48.50
2019-02-20T18:52:34.115Z,48.60
2019-02-20T18:55:05.841Z,48.50
2019-02-20T18:57:31.563Z,48.40
2019-02-20T18:59:59.729Z,48.30
2019-02-20T19:02:27.643Z,48.20
2019-02-20T19:04:55.864Z,48.60
2019-02-20T19:07:24.040Z,48.30
2019-02-20T19:09:52.011Z,48.40
2019-02-20T19:12:39.243Z,48.20
2019-02-20T19:15:28.293Z,48.10
2019-02-20T19:18:21.754Z,48.10
2019-02-20T19:20:55.098Z,48.50
2019-02-20T19:23:41.100Z,48.40
2019-02-20T19:26:34.008Z,48.50
2019-02-20T19:29:23.899Z,48.60
2019-02-20T19:32:03.301Z,48.50
2019-02-20T19:34:50.555Z,48.50
2019-02-20T19:37:50.118Z,48.60
2019-02-20T19:40:46.637Z,48.50
2019-02-20T19:43:48.864Z,50.80
2019-02-20T19:46:37.259Z,52.20
2019-02-20T19:49:24.520Z,50.30
2019-02-20T19:52:17.884Z,51.20
2019-02-20T19:54:48.921Z,51.30
2019-02-20T19:57:38.916Z,52.70
2019-02-20T20:00:24.933Z,52.90
2019-02-20T20:02:57.294Z,53.30
2019-02-20T20:05:43.592Z,53.30
2019-02-20T20:08:34.067Z,53.40
2019-02-20T20:11:30.554Z,50.40
2019-02-20T20:14:17.822Z,49.40
2019-02-20T20:17:05.199Z,49.00
2019-02-20T20:19:45.991Z,48.70
2019-02-20T20:22:21.409Z,48.60
2019-02-20T20:25:11.767Z,48.40
2019-02-20T20:27:47.571Z,48.40
2019-02-20T20:30:20.398Z,48.20
2019-02-20T20:32:57.535Z,49.60
2019-02-20T20:35:45.217Z,49.20
2019-02-20T20:38:29.095Z,48.40
2019-02-20T20:41:19.080Z,47.80
2019-02-20T20:44:06.210Z,49.10
2019-02-20T20:46:59.154Z,47.80
2019-02-20T20:49:51.296Z,48.20
2019-02-20T20:52:37.468Z,47.60
2019-02-20T20:55:17.644Z,47.40
2019-02-20T20:58:03.987Z,47.70
2019-02-20T21:00:41.979Z,48.80
2019-02-20T21:03:12.008Z,48.40
2019-02-20T21:06:14.576Z,48.00
2019-02-20T21:09:00.219Z,48.10
2019-02-20T21:11:46.672Z,47.70
2019-02-20T21:14:32.738Z,47.50
2019-02-20T21:17:05.019Z,47.20
2019-02-20T21:19:44.223Z,47.10
2019-02-20T21:22:20.208Z,46.90
2019-02-20T21:25:04.413Z,47.70
2019-02-20T21:27:47.883Z,47.00
2019-02-20T21:30:29.184Z,46.40
2019-02-20T21:33:15.215Z,46.40
2019-02-20T21:35:54.558Z,46.30
2019-02-20T21:38:46.535Z,46.40
2019-02-20T21:41:20.831Z,46.40
2019-02-20T21:44:01.575Z,46.10
2019-02-20T21:46:45.314Z,46.10
2019-02-20T21:49:23.979Z,46.00
2019-02-20T21:52:16.984Z,46.00
2019-02-20T21:55:07.432Z,46.00
2019-02-20T21:57:54.855Z,45.90
2019-02-20T22:00:47.979Z,45.80
2019-02-20T22:03:41.387Z,45.80
2019-02-20T22:06:31.807Z,46.00
2019-02-20T22:09:22.220Z,45.50
2019-02-20T22:12:03.736Z,46.20
2019-02-20T22:14:56.975Z,46.20
2019-02-20T22:17:47.195Z,47.00
2019-02-20T22:20:31.171Z,47.80
2019-02-20T22:23:11.159Z,48.10
2019-02-20T22:25:44.659Z,47.70
2019-02-20T22:28:15.539Z,48.10
2019-02-20T22:30:50.319Z,47.70
2019-02-20T22:33:33.054Z,48.10
2019-02-20T22:36:07.531Z,48.30
2019-02-20T22:38:48.436Z,48.20
2019-02-20T22:41:36.259Z,48.30
2019-02-20T22:44:32.745Z,48.30
2019-02-20T22:47:22.845Z,48.40
2019-02-20T22:49:56.513Z,48.30
2019-02-20T22:52:30.031Z,48.40
2019-02-20T22:55:23.043Z,48.50
2019-02-20T22:58:09.926Z,48.30
2019-02-20T23:01:06.693Z,51.00
2019-02-20T23:03:44.727Z,51.20
2019-02-20T23:06:30.739Z,51.70
2019-02-20T23:09:20.164Z,51.80
2019-02-20T23:11:55.299Z,52.20
2019-02-20T23:14:27.878Z,51.60
2019-02-20T23:16:55.718Z,52.10
2019-02-20T23:19:24.043Z,52.20
2019-02-20T23:21:52.240Z,52.40
2019-02-20T23:24:20.083Z,52.10
2019-02-20T23:26:47.975Z,52.40
2019-02-20T23:29:15.851Z,52.50
2019-02-20T23:31:43.735Z,52.50
2019-02-20T23:34:11.879Z,52.50
2019-02-20T23:36:40.050Z,52.30
2019-02-20T23:39:07.898Z,52.20
2019-02-20T23:41:35.747Z,52.50
2019-02-20T23:44:03.588Z,52.50
2019-02-20T23:46:31.721Z,52.30
2019-02-20T23:48:59.896Z,52.50
2019-02-20T23:51:28.078Z,52.60
2019-02-20T23:53:55.936Z,52.50
2019-02-20T23:56:23.816Z,52.40
2019-02-20T23:58:57.829Z,52.60
